Time;durP1;ratioP1;P1;durP2;ratioP2;P2;SDS_P1;SDS_P2;PMS_P1;PMS_P2;Temp;Humidity;BMP_temperature;BMP_pressure;BME280_temperature;BME280_humidity;BME280_pressure;Samples;Min_cycle;Max_cycle;Signal;HPM_P1;HPM_P2
2023/06/18 00:00:58;;;;;;;10.27;9.33;;;18.50;75.50;;;;;;6097105;23;20443;-76
2023/06/18 00:03:26;;;;;;;10.23;9.53;;;18.60;75.50;;;;;;6089343;23;20433;-76
2023/06/18 00:05:54;;;;;;;9.60;8.80;;;18.60;75.70;;;;;;6112332;23;20497;-76
2023/06/18 00:08:21;;;;;;;9.87;9.07;;;18.50;75.80;;;;;;6102011;23;20538;-76
2023/06/18 00:10:48;;;;;;;9.97;8.97;;;18.40;76.80;;;;;;6116293;23;20976;-76
2023/06/18 00:13:15;;;;;;;9.77;8.97;;;18.40;76.90;;;;;;6118960;23;20425;-76
2023/06/18 00:15:43;;;;;;;10.07;9.27;;;18.30;77.30;;;;;;6118209;23;20457;-76
2023/06/18 00:18:10;;;;;;;9.87;9.03;;;18.20;77.70;;;;;;6111854;23;20802;-76
2023/06/18 00:20:39;;;;;;;9.73;8.93;;;18.30;78.30;;;;;;6113936;23;20437;-76
2023/06/18 00:23:06;;;;;;;9.60;8.83;;;18.20;78.00;;;;;;6119236;23;20820;-76
2023/06/18 00:25:33;;;;;;;9.67;8.90;;;18.10;78.30;;;;;;6108498;23;20511;-77
2023/06/18 00:28:00;;;;;;;9.57;8.67;;;18.20;78.80;;;;;;6117292;23;20523;-77
2023/06/18 00:30:27;;;;;;;9.60;8.80;;;18.00;78.80;;;;;;6115516;23;20433;-77
2023/06/18 00:32:54;;;;;;;9.90;9.00;;;17.90;79.40;;;;;;6113853;23;20426;-77
2023/06/18 00:35:21;;;;;;;9.30;8.57;;;18.00;80.10;;;;;;6112336;23;20544;-77
2023/06/18 00:37:50;;;;;;;9.27;8.53;;;17.90;80.30;;;;;;6117468;23;20452;-77
2023/06/18 00:40:17;;;;;;;10.20;9.00;;;17.90;81.00;;;;;;6109857;23;20524;-77
2023/06/18 00:42:48;;;;;;;9.60;8.77;;;17.90;81.60;;;;;;6110216;23;20439;-76
2023/06/18 00:45:16;;;;;;;9.23;8.50;;;17.90;82.10;;;;;;6105245;23;20473;-76
2023/06/18 00:47:44;;;;;;;9.87;8.97;;;17.90;82.50;;;;;;6110078;23;20520;-76
2023/06/18 00:50:14;;;;;;;9.60;8.90;;;17.80;82.70;;;;;;6104411;23;20521;-77
2023/06/18 00:52:44;;;;;;;10.07;9.10;;;17.80;83.80;;;;;;6108006;23;20960;-76
2023/06/18 00:55:13;;;;;;;9.63;8.83;;;17.60;83.30;;;;;;6110936;23;20465;-76
2023/06/18 00:57:41;;;;;;;10.07;9.17;;;17.60;84.10;;;;;;6119830;23;20433;-77
2023/06/18 01:00:12;;;;;;;9.43;8.57;;;17.50;84.90;;;;;;6108164;23;20437;-76
2023/06/18 01:02:45;;;;;;;10.30;9.27;;;17.40;85.50;;;;;;6113534;23;20435;-77
2023/06/18 01:05:14;;;;;;;9.60;8.80;;;17.40;86.20;;;;;;6111317;23;20472;-76
2023/06/18 01:07:42;;;;;;;9.43;8.57;;;17.20;86.80;;;;;;6121891;23;20441;-75
2023/06/18 01:10:13;;;;;;;10.67;9.70;;;17.20;87.40;;;;;;6100588;23;20444;-75
2023/06/18 01:12:45;;;;;;;9.97;9.17;;;17.20;87.60;;;;;;6105441;23;21008;-76
2023/06/18 01:15:12;;;;;;;11.03;10.13;;;17.20;88.10;;;;;;6114790;23;20968;-76
2023/06/18 01:17:46;;;;;;;10.00;9.10;;;17.20;88.70;;;;;;6107713;23;20437;-76
2023/06/18 01:20:15;;;;;;;10.47;9.57;;;17.20;89.10;;;;;;6109815;23;20516;-76
2023/06/18 01:22:47;;;;;;;10.90;9.80;;;17.20;89.50;;;;;;6117693;23;20487;-75
2023/06/18 01:25:16;;;;;;;10.20;9.20;;;17.30;90.20;;;;;;6107176;23;20477;-75
2023/06/18 01:27:47;;;;;;;9.90;9.00;;;17.10;90.50;;;;;;6118288;23;20491;-76
2023/06/18 01:30:15;;;;;;;10.23;9.33;;;17.00;91.00;;;;;;6111741;23;20446;-75
2023/06/18 01:32:42;;;;;;;10.23;9.37;;;16.90;91.50;;;;;;6115002;23;20461;-75
2023/06/18 01:35:15;;;;;;;12.00;11.00;;;16.80;92.10;;;;;;6108132;23;20456;-76
2023/06/18 01:37:59;;;;;;;10.50;9.70;;;16.80;92.80;;;;;;6113417;23;20469;-75
2023/06/18 01:40:34;;;;;;;10.90;10.00;;;16.70;93.60;;;;;;6105747;23;20943;-75
2023/06/18 01:43:11;;;;;;;11.63;10.73;;;16.60;94.20;;;;;;6109443;23;20437;-75
2023/06/18 01:45:43;;;;;;;10.63;9.67;;;16.60;94.70;;;;;;6104886;23;20987;-75
2023/06/18 01:48:12;;;;;;;11.50;10.50;;;16.70;95.10;;;;;;6111577;23;20877;-75
2023/06/18 01:50:43;;;;;;;10.90;10.00;;;16.60;95.40;;;;;;6104202;23;20821;-76
2023/06/18 01:53:15;;;;;;;10.77;9.87;;;16.60;96.00;;;;;;6106793;23;20453;-76
2023/06/18 01:55:44;;;;;;;11.37;10.40;;;16.50;96.50;;;;;;6122845;23;20468;-77
2023/06/18 01:58:14;;;;;;;11.70;10.53;;;16.60;97.00;;;;;;6106208;23;20454;-77
2023/06/18 02:00:41;;;;;;;11.40;10.50;;;16.50;97.50;;;;;;6090685;23;20431;-77
2023/06/18 02:03:08;;;;;;;11.70;10.63;;;16.50;98.00;;;;;;6106886;23;20924;-77
2023/06/18 02:05:35;;;;;;;11.93;10.73;;;16.50;98.50;;;;;;6116425;23;20512;-77
2023/06/18 02:08:02;;;;;;;11.63;10.63;;;16.40;99.10;;;;;;6117129;23;20921;-76
2023/06/18 02:10:29;;;;;;;11.90;10.70;;;16.40;99.70;;;;;;6116113;23;20473;-76
2023/06/18 02:12:56;;;;;;;11.07;10.17;;;16.40;99.90;;;;;;6117995;23;20451;-76
2023/06/18 02:15:24;;;;;;;11.83;10.73;;;16.30;99.90;;;;;;6113287;23;20550;-76
2023/06/18 02:17:51;;;;;;;11.43;10.53;;;16.30;99.90;;;;;;6102653;23;20521;-76
2023/06/18 02:20:19;;;;;;;10.80;9.90;;;16.30;99.90;;;;;;6118985;23;20433;-76
2023/06/18 02:22:46;;;;;;;11.40;10.50;;;16.20;99.90;;;;;;6117378;23;20445;-76
2023/06/18 02:25:13;;;;;;;10.73;9.90;;;16.20;99.90;;;;;;6114698;23;20481;-76
2023/06/18 02:27:41;;;;;;;11.83;10.80;;;16.20;99.90;;;;;;6109531;23;21043;-76
2023/06/18 02:30:08;;;;;;;11.63;10.37;;;16.10;99.90;;;;;;6092735;23;20434;-76
2023/06/18 02:32:39;;;;;;;12.13;11.03;;;16.10;99.90;;;;;;6093313;23;20466;-76
2023/06/18 02:35:07;;;;;;;11.23;10.33;;;16.10;99.90;;;;;;6113943;23;20453;-76
2023/06/18 02:37:34;;;;;;;10.80;9.90;;;16.10;99.90;;;;;;6118774;23;20461;-77
2023/06/18 02:40:01;;;;;;;11.53;10.43;;;16.10;99.90;;;;;;6117504;23;20443;-77
2023/06/18 02:42:28;;;;;;;11.73;9.67;;;16.30;99.90;;;;;;6116847;23;20941;-77
2023/06/18 02:44:55;;;;;;;11.00;9.80;;;16.00;99.90;;;;;;6114045;23;20531;-76
2023/06/18 02:47:22;;;;;;;10.80;10.00;;;16.00;99.90;;;;;;6111934;23;20431;-76
2023/06/18 02:49:51;;;;;;;11.47;10.50;;;16.00;99.90;;;;;;6097422;23;20466;-76
2023/06/18 02:52:17;;;;;;;11.70;10.60;;;15.90;99.90;;;;;;6113616;23;20468;-76
2023/06/18 02:54:44;;;;;;;11.10;10.20;;;15.90;99.90;;;;;;6118074;23;20545;-76
2023/06/18 02:57:11;;;;;;;11.40;10.20;;;15.90;99.90;;;;;;6114884;23;20446;-76
2023/06/18 02:59:38;;;;;;;10.60;9.80;;;15.90;99.90;;;;;;6104754;23;20469;-76
2023/06/18 03:02:06;;;;;;;11.30;10.30;;;15.90;99.90;;;;;;6116703;23;20438;-77
2023/06/18 03:04:34;;;;;;;11.00;10.20;;;15.80;99.90;;;;;;6118386;23;20468;-77
2023/06/18 03:07:03;;;;;;;10.97;10.07;;;15.70;99.90;;;;;;6105233;23;20483;-77
2023/06/18 03:09:30;;;;;;;11.50;10.57;;;15.70;99.90;;;;;;6117289;23;20495;-77
2023/06/18 03:11:57;;;;;;;11.10;10.17;;;15.70;99.90;;;;;;6117737;23;20441;-76
2023/06/18 03:14:25;;;;;;;12.23;11.10;;;15.70;99.90;;;;;;6117077;23;21019;-76
2023/06/18 03:16:52;;;;;;;11.20;10.40;;;15.70;99.90;;;;;;6110842;23;20449;-77
2023/06/18 03:19:19;;;;;;;11.70;10.70;;;15.70;99.90;;;;;;6110347;23;20453;-77
2023/06/18 03:21:46;;;;;;;11.60;10.60;;;15.70;99.90;;;;;;6113298;23;20449;-77
2023/06/18 03:24:15;;;;;;;11.63;10.67;;;15.60;99.90;;;;;;6087462;23;20966;-78
2023/06/18 03:26:45;;;;;;;10.93;10.03;;;15.60;99.90;;;;;;6111809;23;20550;-81
2023/06/18 03:29:12;;;;;;;10.67;9.87;;;15.60;99.90;;;;;;6113747;23;20968;-74
2023/06/18 03:31:40;;;;;;;11.53;10.53;;;15.60;99.90;;;;;;6111175;23;20448;-74
2023/06/18 03:34:08;;;;;;;10.80;9.90;;;15.60;99.90;;;;;;6107143;23;20468;-74
2023/06/18 03:36:39;;;;;;;11.17;10.17;;;15.60;99.90;;;;;;6110021;23;20936;-74
2023/06/18 03:39:06;;;;;;;11.43;10.53;;;15.50;99.90;;;;;;6099497;23;20439;-75
2023/06/18 03:41:34;;;;;;;10.57;9.67;;;15.60;99.90;;;;;;6105026;23;20767;-74
2023/06/18 03:44:02;;;;;;;11.50;10.60;;;15.50;99.90;;;;;;6112452;23;20462;-74
2023/06/18 03:46:30;;;;;;;10.87;9.83;;;15.60;99.90;;;;;;6115874;23;20462;-74
2023/06/18 03:48:57;;;;;;;10.77;9.83;;;15.60;99.90;;;;;;6109855;23;20452;-74
2023/06/18 03:51:24;;;;;;;10.63;9.73;;;15.60;99.90;;;;;;6104088;23;20782;-74
2023/06/18 03:53:51;;;;;;;10.53;9.73;;;15.60;99.90;;;;;;6107874;23;20491;-74
2023/06/18 03:56:18;;;;;;;10.40;9.60;;;15.60;99.90;;;;;;6097040;23;20451;-74
2023/06/18 03:58:48;;;;;;;10.30;9.50;;;15.50;99.90;;;;;;6114637;23;20438;-74
2023/06/18 04:01:15;;;;;;;10.13;9.33;;;15.50;99.90;;;;;;6113884;23;21074;-74
2023/06/18 04:03:42;;;;;;;11.50;10.50;;;15.50;99.90;;;;;;6107312;23;20493;-75
2023/06/18 04:06:09;;;;;;;10.70;9.90;;;15.70;99.90;;;;;;6105257;23;20469;-74
2023/06/18 04:08:36;;;;;;;10.57;9.70;;;15.50;99.90;;;;;;6117808;23;20448;-74
2023/06/18 04:11:04;;;;;;;11.83;10.80;;;15.60;99.90;;;;;;6112527;23;20446;-74
2023/06/18 04:13:31;;;;;;;10.03;9.20;;;15.60;99.90;;;;;;6106538;23;20457;-74
2023/06/18 04:16:00;;;;;;;10.53;9.60;;;15.50;99.90;;;;;;6117366;23;20429;-74
2023/06/18 04:18:29;;;;;;;10.30;9.40;;;15.60;99.90;;;;;;6117176;23;20816;-73
2023/06/18 04:20:56;;;;;;;11.17;10.13;;;15.60;99.90;;;;;;6116924;23;20441;-74
2023/06/18 04:23:23;;;;;;;9.93;9.13;;;15.70;99.90;;;;;;6116006;23;20830;-74
2023/06/18 04:25:50;;;;;;;10.13;9.33;;;15.70;99.90;;;;;;6112493;23;20597;-73
2023/06/18 04:28:17;;;;;;;9.70;9.00;;;15.70;99.90;;;;;;6102211;23;20965;-74
2023/06/18 04:30:44;;;;;;;10.83;9.93;;;15.70;99.90;;;;;;6114680;23;20434;-74
2023/06/18 04:33:12;;;;;;;10.93;10.03;;;15.80;99.90;;;;;;6116503;23;20449;-73
2023/06/18 04:35:39;;;;;;;10.87;10.07;;;15.80;99.90;;;;;;6107986;23;20495;-74
2023/06/18 04:38:07;;;;;;;9.87;9.07;;;15.80;99.90;;;;;;6099915;23;20444;-73
2023/06/18 04:40:34;;;;;;;10.23;9.43;;;15.90;99.90;;;;;;6097658;23;20457;-75
2023/06/18 04:43:02;;;;;;;10.10;9.20;;;16.00;99.90;;;;;;6111359;23;20444;-74
2023/06/18 04:45:29;;;;;;;10.27;9.47;;;16.00;99.90;;;;;;6117346;23;20552;-74
2023/06/18 04:47:56;;;;;;;10.53;9.73;;;16.00;99.90;;;;;;6116810;23;20530;-74
2023/06/18 04:50:24;;;;;;;10.77;9.97;;;16.10;99.90;;;;;;6105164;23;20459;-74
2023/06/18 04:52:52;;;;;;;10.70;9.90;;;16.10;99.90;;;;;;6117785;23;20445;-74
2023/06/18 04:55:18;;;;;;;10.90;10.00;;;16.10;99.90;;;;;;6115883;23;20482;-75
2023/06/18 04:57:45;;;;;;;10.77;9.77;;;16.10;99.90;;;;;;6107754;23;20796;-74
2023/06/18 05:00:13;;;;;;;11.30;10.47;;;16.10;99.90;;;;;;6116921;23;20520;-75
2023/06/18 05:02:40;;;;;;;10.20;9.40;;;16.10;99.90;;;;;;6116212;23;20433;-75
2023/06/18 05:05:09;;;;;;;11.17;10.07;;;16.10;99.90;;;;;;6116468;23;20488;-74
2023/06/18 05:07:37;;;;;;;9.80;9.00;;;16.10;99.90;;;;;;6123178;23;20445;-75
2023/06/18 05:10:05;;;;;;;10.57;9.67;;;16.20;99.90;;;;;;6108442;23;20444;-75
2023/06/18 05:12:32;;;;;;;9.77;9.03;;;16.10;99.90;;;;;;6106522;23;20478;-75
2023/06/18 05:15:00;;;;;;;9.60;8.80;;;16.10;99.90;;;;;;6117254;23;20464;-75
2023/06/18 05:17:26;;;;;;;9.83;9.10;;;16.10;99.90;;;;;;6098668;23;20493;-75
2023/06/18 05:19:53;;;;;;;9.70;9.00;;;16.20;99.90;;;;;;6104842;23;20558;-74
2023/06/18 05:22:21;;;;;;;10.20;9.40;;;16.20;99.90;;;;;;6112416;23;20445;-75
2023/06/18 05:24:49;;;;;;;9.00;8.30;;;16.20;99.90;;;;;;6108975;23;20467;-75
2023/06/18 05:27:16;;;;;;;9.70;8.90;;;16.20;99.90;;;;;;6097460;23;20473;-74
2023/06/18 05:29:43;;;;;;;9.20;8.60;;;16.20;99.90;;;;;;6103921;23;20539;-75
2023/06/18 05:32:10;;;;;;;10.63;9.70;;;16.30;99.90;;;;;;6096408;23;20449;-74
2023/06/18 05:34:37;;;;;;;9.80;9.10;;;16.30;99.90;;;;;;6110365;23;20482;-75
2023/06/18 05:37:05;;;;;;;9.73;8.93;;;16.40;99.90;;;;;;6117039;23;20449;-74
2023/06/18 05:39:32;;;;;;;9.97;9.07;;;16.40;99.90;;;;;;6107140;23;20449;-74
2023/06/18 05:42:00;;;;;;;10.57;9.77;;;16.40;99.90;;;;;;6119492;23;20430;-75
2023/06/18 05:44:27;;;;;;;10.47;9.47;;;16.40;99.90;;;;;;6109695;23;20488;-75
2023/06/18 05:46:54;;;;;;;9.17;8.50;;;16.50;99.90;;;;;;6122993;23;20526;-75
2023/06/18 05:49:22;;;;;;;10.50;9.60;;;16.50;99.90;;;;;;6105820;23;20448;-74
2023/06/18 05:51:49;;;;;;;9.43;8.80;;;16.50;99.90;;;;;;6106852;23;20948;-74
2023/06/18 05:54:16;;;;;;;9.50;8.90;;;16.60;99.90;;;;;;6117936;23;20532;-74
2023/06/18 05:56:43;;;;;;;10.30;9.53;;;16.60;99.90;;;;;;6118571;23;20845;-75
2023/06/18 05:59:12;;;;;;;9.20;8.50;;;16.70;99.90;;;;;;6113335;23;20488;-75
2023/06/18 06:01:39;;;;;;;9.60;8.80;;;17.00;99.90;;;;;;6108300;23;20475;-74
2023/06/18 06:04:06;;;;;;;9.37;8.67;;;16.90;99.90;;;;;;6116895;23;20544;-75
2023/06/18 06:06:34;;;;;;;9.60;8.90;;;17.10;99.90;;;;;;6106149;23;20461;-75
2023/06/18 06:09:01;;;;;;;10.57;9.77;;;17.10;99.90;;;;;;6112142;23;20433;-75
2023/06/18 06:11:28;;;;;;;9.70;8.70;;;17.20;99.90;;;;;;6109636;23;20793;-75
2023/06/18 06:13:57;;;;;;;9.87;9.00;;;17.30;99.90;;;;;;6107499;23;20448;-75
2023/06/18 06:16:25;;;;;;;9.20;8.50;;;17.40;99.90;;;;;;6109649;23;20434;-75
2023/06/18 06:18:53;;;;;;;10.13;9.30;;;17.50;99.90;;;;;;6104599;23;20454;-75
2023/06/18 06:21:20;;;;;;;9.30;8.63;;;17.70;99.90;;;;;;6116418;23;20483;-74
2023/06/18 06:23:47;;;;;;;9.40;8.53;;;17.80;99.90;;;;;;6104090;23;20513;-73
2023/06/18 06:26:15;;;;;;;9.53;8.73;;;17.90;99.90;;;;;;6105226;23;20879;-74
2023/06/18 06:28:42;;;;;;;9.90;9.20;;;18.10;99.90;;;;;;6111625;23;20517;-74
2023/06/18 06:31:09;;;;;;;9.57;8.83;;;18.30;99.90;;;;;;6117154;23;20913;-74
2023/06/18 06:33:37;;;;;;;9.70;8.93;;;18.50;99.90;;;;;;6114437;23;20458;-74
2023/06/18 06:36:05;;;;;;;8.70;8.00;;;18.60;99.90;;;;;;6097073;23;20641;-74
2023/06/18 06:38:32;;;;;;;9.13;8.43;;;18.80;99.90;;;;;;6092163;23;20430;-74
2023/06/18 06:40:59;;;;;;;8.30;7.70;;;18.80;99.90;;;;;;6095648;23;20457;-74
2023/06/18 06:43:26;;;;;;;7.40;6.90;;;19.00;99.90;;;;;;6098373;23;20466;-75
2023/06/18 06:45:53;;;;;;;8.67;7.97;;;19.00;99.90;;;;;;6105659;23;20438;-74
2023/06/18 06:48:20;;;;;;;7.50;6.90;;;19.20;99.90;;;;;;6103732;23;20766;-75
2023/06/18 06:50:49;;;;;;;8.53;7.93;;;19.40;99.90;;;;;;6098046;23;20447;-74
2023/06/18 06:53:16;;;;;;;8.67;7.97;;;19.50;99.90;;;;;;6105155;23;20540;-73
2023/06/18 06:55:43;;;;;;;8.73;8.13;;;19.70;99.90;;;;;;6088915;23;20956;-73
2023/06/18 06:58:10;;;;;;;8.80;8.20;;;19.90;99.90;;;;;;6110453;23;20520;-74
2023/06/18 07:00:37;;;;;;;8.17;7.47;;;20.00;99.90;;;;;;6108758;23;21005;-73
2023/06/18 07:03:04;;;;;;;8.30;7.60;;;20.20;99.90;;;;;;6104072;23;20533;-74
2023/06/18 07:05:31;;;;;;;9.20;8.50;;;20.40;99.90;;;;;;6086671;23;20503;-76
2023/06/18 07:08:02;;;;;;;9.00;8.30;;;20.60;99.90;;;;;;6082038;23;20527;-74
2023/06/18 07:10:29;;;;;;;8.83;8.20;;;20.60;99.90;;;;;;6085513;23;20434;-78
2023/06/18 07:12:56;;;;;;;8.70;8.10;;;20.70;99.90;;;;;;6080989;23;20520;-76
2023/06/18 07:15:23;;;;;;;8.63;7.93;;;20.80;99.90;;;;;;6097970;23;20508;-75
2023/06/18 07:17:50;;;;;;;8.83;8.10;;;20.90;99.90;;;;;;6099337;23;20523;-76
2023/06/18 07:20:17;;;;;;;8.20;7.57;;;21.00;99.90;;;;;;6091352;23;20787;-76
2023/06/18 07:22:44;;;;;;;8.73;8.03;;;21.20;99.90;;;;;;6107864;23;20516;-75
2023/06/18 07:25:13;;;;;;;8.13;7.50;;;21.40;99.90;;;;;;6104505;23;20912;-76
2023/06/18 07:27:40;;;;;;;8.00;7.40;;;21.60;99.80;;;;;;6104145;23;20461;-76
2023/06/18 07:30:08;;;;;;;8.03;7.27;;;21.80;99.00;;;;;;6107463;23;20444;-76
2023/06/18 07:32:36;;;;;;;7.77;7.27;;;22.00;98.30;;;;;;6105477;23;20509;-76
2023/06/18 07:35:05;;;;;;;8.07;7.47;;;22.10;97.60;;;;;;6095339;23;20632;-76
2023/06/18 07:37:32;;;;;;;8.13;7.50;;;22.20;97.80;;;;;;6088463;23;20779;-75
2023/06/18 07:39:59;;;;;;;8.47;7.77;;;22.40;96.60;;;;;;6108287;23;20433;-75
2023/06/18 07:42:28;;;;;;;8.23;7.63;;;22.40;96.10;;;;;;6105218;23;20458;-80
2023/06/18 07:44:55;;;;;;;8.80;8.20;;;22.60;96.40;;;;;;6098616;23;20454;-79
2023/06/18 07:47:22;;;;;;;8.40;7.90;;;22.80;94.60;;;;;;6104758;23;20538;-76
2023/06/18 07:49:49;;;;;;;8.53;7.83;;;23.00;94.80;;;;;;6090051;23;20454;-77
2023/06/18 07:52:16;;;;;;;8.33;7.73;;;23.20;93.80;;;;;;6073878;23;20438;-72
2023/06/18 07:54:43;;;;;;;8.80;8.10;;;23.30;93.40;;;;;;6075361;23;20448;-72
2023/06/18 07:57:11;;;;;;;8.63;7.83;;;23.60;92.70;;;;;;6079010;23;20470;-71
2023/06/18 07:59:39;;;;;;;9.90;7.60;;;23.70;92.20;;;;;;6089777;23;20500;-71
2023/06/18 08:02:06;;;;;;;8.03;7.43;;;23.90;92.90;;;;;;6090470;23;20474;-72
2023/06/18 08:04:33;;;;;;;7.67;7.17;;;24.10;92.20;;;;;;6067383;23;20454;-71
2023/06/18 08:07:00;;;;;;;7.90;7.30;;;24.40;91.40;;;;;;6085568;23;20523;-71
2023/06/18 08:09:27;;;;;;;7.93;7.40;;;24.70;90.30;;;;;;6093663;23;20802;-71
2023/06/18 08:11:55;;;;;;;8.63;8.03;;;25.00;87.80;;;;;;6094069;23;20430;-71
2023/06/18 08:14:22;;;;;;;7.80;7.30;;;25.30;87.90;;;;;;6092312;23;20998;-71
2023/06/18 08:16:50;;;;;;;8.20;7.60;;;25.60;87.40;;;;;;6086716;23;20962;-73
2023/06/18 08:19:17;;;;;;;7.60;7.10;;;25.80;85.60;;;;;;6104312;23;20438;-80
2023/06/18 08:21:45;;;;;;;7.70;7.10;;;26.00;87.20;;;;;;6108975;23;20488;-72
2023/06/18 08:24:12;;;;;;;7.53;7.03;;;26.30;86.20;;;;;;6107859;23;20496;-72
2023/06/18 08:26:40;;;;;;;7.63;7.13;;;26.50;84.80;;;;;;6101338;23;21202;-72
2023/06/18 08:29:07;;;;;;;7.57;6.97;;;26.70;83.70;;;;;;6096500;23;20507;-72
2023/06/18 08:31:34;;;;;;;7.63;6.93;;;27.00;82.60;;;;;;6099372;23;20513;-73
2023/06/18 08:34:03;;;;;;;7.87;7.17;;;27.30;82.10;;;;;;6117477;23;20497;-72
2023/06/18 08:36:30;;;;;;;7.77;7.17;;;27.60;79.10;;;;;;6104984;23;20472;-73
2023/06/18 08:38:57;;;;;;;7.20;6.70;;;27.90;76.60;;;;;;6110331;23;20770;-74
2023/06/18 08:41:24;;;;;;;8.00;7.30;;;28.00;74.50;;;;;;6095518;23;20944;-75
2023/06/18 08:43:51;;;;;;;7.50;6.80;;;28.10;73.70;;;;;;6102698;23;20507;-73
2023/06/18 08:46:18;;;;;;;7.17;6.57;;;28.00;72.80;;;;;;6115102;23;21024;-73
2023/06/18 08:48:50;;;;;;;7.70;7.03;;;27.90;70.90;;;;;;6104626;23;20464;-83
2023/06/18 08:51:20;;;;;;;7.10;6.60;;;27.80;70.60;;;;;;6117224;23;20435;-76
2023/06/18 08:53:55;;;;;;;7.73;7.13;;;27.80;70.30;;;;;;6119281;23;21020;-77
2023/06/18 08:56:24;;;;;;;7.43;6.97;;;27.90;73.40;;;;;;6100372;23;20472;-77
2023/06/18 08:58:55;;;;;;;7.40;6.90;;;28.10;72.80;;;;;;6115641;23;20533;-77
2023/06/18 09:01:24;;;;;;;7.17;6.70;;;28.40;70.60;;;;;;6119493;23;20805;-77
2023/06/18 09:03:52;;;;;;;7.10;6.70;;;28.70;68.20;;;;;;6092304;23;20446;-77
2023/06/18 09:06:22;;;;;;;7.33;6.83;;;28.90;64.90;;;;;;6117223;23;20445;-77
2023/06/18 09:08:49;;;;;;;7.30;6.80;;;29.10;65.70;;;;;;6118314;23;20473;-77
2023/06/18 09:11:16;;;;;;;7.40;6.80;;;29.30;66.10;;;;;;6120226;23;20433;-76
2023/06/18 09:13:44;;;;;;;6.93;6.43;;;29.70;64.50;;;;;;6108854;23;20450;-77
2023/06/18 09:16:12;;;;;;;7.07;6.50;;;29.90;61.80;;;;;;6118708;23;20971;-77
2023/06/18 09:18:39;;;;;;;7.63;7.13;;;30.00;61.50;;;;;;6117035;23;20575;-77
2023/06/18 09:21:06;;;;;;;7.47;6.87;;;30.20;60.40;;;;;;6118247;23;20485;-77
2023/06/18 09:23:35;;;;;;;7.57;6.97;;;30.20;60.10;;;;;;6117948;23;20488;-77
2023/06/18 09:26:03;;;;;;;7.17;6.67;;;30.20;60.80;;;;;;6117577;23;20437;-77
2023/06/18 09:28:30;;;;;;;7.47;6.90;;;30.20;56.70;;;;;;6110617;23;20544;-77
2023/06/18 09:30:59;;;;;;;7.03;6.53;;;29.90;56.90;;;;;;6109396;23;20524;-76
2023/06/18 09:33:31;;;;;;;6.33;5.83;;;29.80;55.80;;;;;;6117887;23;20449;-76
2023/06/18 09:36:02;;;;;;;6.60;6.17;;;29.90;55.90;;;;;;6118766;23;20996;-76
2023/06/18 09:38:35;;;;;;;7.10;6.60;;;30.20;53.30;;;;;;6119246;23;20483;-76
2023/06/18 09:41:04;;;;;;;7.20;6.60;;;30.40;54.80;;;;;;6096172;23;20514;-77
2023/06/18 09:43:35;;;;;;;7.53;6.83;;;30.70;54.90;;;;;;6117595;23;21055;-77
2023/06/18 09:46:05;;;;;;;6.70;6.20;;;31.00;52.70;;;;;;6116263;23;20915;-76
2023/06/18 09:48:35;;;;;;;6.73;6.23;;;31.10;51.70;;;;;;6093210;23;20793;-76
2023/06/18 09:51:02;;;;;;;6.47;5.97;;;31.30;51.60;;;;;;6117556;23;20428;-76
2023/06/18 09:53:29;;;;;;;6.57;5.90;;;31.50;50.00;;;;;;6118676;23;20488;-77
2023/06/18 09:56:11;;;;;;;6.60;6.20;;;31.80;49.50;;;;;;6107189;23;20456;-76
2023/06/18 09:58:43;;;;;;;6.10;5.70;;;32.40;48.80;;;;;;6107855;23;20433;-77
2023/06/18 10:01:11;;;;;;;6.40;6.00;;;32.90;47.60;;;;;;6117168;23;21050;-77
2023/06/18 10:03:38;;;;;;;6.20;5.70;;;33.30;47.70;;;;;;6115351;23;20538;-76
2023/06/18 10:06:12;;;;;;;6.60;6.20;;;33.00;47.80;;;;;;6119158;23;20444;-77
2023/06/18 10:08:41;;;;;;;5.67;5.27;;;33.00;47.30;;;;;;6109550;23;20810;-76
2023/06/18 10:11:10;;;;;;;6.37;5.97;;;33.30;46.90;;;;;;6128459;23;20487;-77
2023/06/18 10:13:42;;;;;;;5.50;5.10;;;33.50;45.50;;;;;;6092917;23;20459;-77
2023/06/18 10:16:11;;;;;;;5.97;5.60;;;33.60;44.10;;;;;;6100230;23;20434;-77
2023/06/18 10:18:39;;;;;;;5.63;5.23;;;33.60;44.80;;;;;;6105499;23;20517;-76
2023/06/18 10:21:07;;;;;;;6.50;5.97;;;33.60;43.00;;;;;;6113997;23;20426;-77
2023/06/18 10:23:36;;;;;;;6.10;5.60;;;33.90;44.70;;;;;;6109491;23;20522;-77
2023/06/18 10:26:04;;;;;;;5.60;5.30;;;34.30;43.20;;;;;;6115069;23;20487;-77
2023/06/18 10:28:33;;;;;;;5.83;5.43;;;34.60;42.60;;;;;;6120498;23;20476;-77
2023/06/18 10:31:01;;;;;;;6.07;5.67;;;34.90;43.00;;;;;;6110654;23;20425;-77
2023/06/18 10:33:33;;;;;;;5.53;5.20;;;35.20;42.90;;;;;;6099550;23;20972;-77
2023/06/18 10:36:00;;;;;;;5.93;5.50;;;35.70;41.10;;;;;;6119735;23;20429;-77
2023/06/18 10:38:28;;;;;;;6.60;6.20;;;36.00;41.00;;;;;;6108404;23;21001;-77
2023/06/18 10:41:09;;;;;;;6.30;5.90;;;35.60;42.10;;;;;;6117784;23;20760;-77
2023/06/18 10:43:41;;;;;;;6.47;5.97;;;35.20;42.80;;;;;;6117075;23;20599;-77
2023/06/18 10:46:12;;;;;;;6.57;6.17;;;35.10;41.80;;;;;;6119772;23;20513;-77
2023/06/18 10:48:40;;;;;;;6.87;6.37;;;35.10;42.30;;;;;;6094909;23;20473;-77
2023/06/18 10:51:17;;;;;;;6.23;5.83;;;34.80;42.40;;;;;;6110520;23;20432;-77
2023/06/18 10:53:46;;;;;;;6.50;6.00;;;34.80;42.80;;;;;;6119461;23;21003;-77
2023/06/18 10:56:15;;;;;;;6.17;5.67;;;35.10;42.30;;;;;;6109316;23;20829;-77
2023/06/18 10:58:44;;;;;;;6.40;6.00;;;35.10;42.20;;;;;;6117642;23;20449;-77
2023/06/18 11:01:25;;;;;;;6.23;5.83;;;35.40;42.40;;;;;;6111394;23;20790;-77
2023/06/18 11:04:02;;;;;;;6.20;5.80;;;35.90;40.70;;;;;;6104373;23;20987;-77
2023/06/18 11:06:30;;;;;;;6.67;6.13;;;36.30;41.00;;;;;;6117224;23;20440;-77
2023/06/18 11:08:57;;;;;;;6.80;6.40;;;35.60;41.80;;;;;;6100843;23;20465;-77
2023/06/18 11:11:25;;;;;;;7.23;6.60;;;35.40;41.60;;;;;;6118025;23;20495;-77
2023/06/18 11:13:55;;;;;;;6.40;6.00;;;35.50;42.10;;;;;;6117525;23;21011;-77
2023/06/18 11:16:23;;;;;;;6.33;5.87;;;35.60;40.30;;;;;;6122981;23;20494;-77
2023/06/18 11:18:53;;;;;;;6.20;5.80;;;35.40;39.70;;;;;;6111943;23;20449;-76
2023/06/18 11:21:21;;;;;;;6.90;6.40;;;35.50;40.30;;;;;;6111612;23;20437;-76
2023/06/18 11:23:49;;;;;;;6.07;5.67;;;36.00;40.70;;;;;;6109872;23;20837;-77
2023/06/18 11:26:17;;;;;;;6.03;5.63;;;36.30;38.70;;;;;;6117748;23;20429;-77
2023/06/18 11:28:46;;;;;;;7.00;6.50;;;36.50;39.60;;;;;;6118410;23;20457;-77
2023/06/18 11:31:14;;;;;;;6.23;5.83;;;36.90;39.90;;;;;;6105350;23;20448;-80
2023/06/18 11:33:47;;;;;;;5.90;5.50;;;36.70;38.80;;;;;;6113808;23;20477;-78
2023/06/18 11:36:16;;;;;;;5.77;5.37;;;36.70;38.00;;;;;;6085529;23;21103;-77
2023/06/18 11:38:43;;;;;;;6.60;6.10;;;36.70;39.10;;;;;;6102082;23;20517;-77
2023/06/18 11:41:11;;;;;;;6.00;5.60;;;37.00;37.90;;;;;;6083551;23;20955;-88
2023/06/18 11:43:46;;;;;;;5.77;5.40;;;37.00;38.10;;;;;;6114397;23;20469;-80
2023/06/18 11:46:30;;;;;;;5.43;5.03;;;37.00;40.00;;;;;;6117569;23;20429;-85
2023/06/18 11:48:59;;;;;;;5.70;5.30;;;36.80;37.70;;;;;;6104883;23;20498;-83
2023/06/18 11:51:27;;;;;;;6.57;6.07;;;36.70;38.50;;;;;;6106769;23;20528;-76
2023/06/18 11:53:54;;;;;;;5.90;5.50;;;36.50;39.00;;;;;;6107628;23;20454;-76
2023/06/18 11:56:26;;;;;;;5.60;5.30;;;36.40;39.40;;;;;;6108946;23;20446;-76
2023/06/18 11:58:53;;;;;;;5.87;5.47;;;36.50;38.20;;;;;;6099453;23;20440;-74
2023/06/18 12:01:21;;;;;;;6.07;5.60;;;36.70;38.50;;;;;;6105279;23;20436;-75
2023/06/18 12:03:49;;;;;;;6.17;5.67;;;35.80;38.30;;;;;;6102247;23;20462;-75
2023/06/18 12:06:16;;;;;;;6.17;5.77;;;35.40;38.40;;;;;;6110169;23;20458;-75
2023/06/18 12:08:45;;;;;;;6.30;5.90;;;34.80;38.20;;;;;;6102509;23;20470;-75
2023/06/18 12:11:23;;;;;;;6.00;5.60;;;35.20;39.70;;;;;;6105950;23;20512;-74
2023/06/18 12:13:55;;;;;;;5.50;5.10;;;35.80;38.40;;;;;;6107487;23;20520;-75
2023/06/18 12:16:28;;;;;;;6.00;5.60;;;36.40;37.50;;;;;;6112753;23;20473;-75
2023/06/18 12:19:01;;;;;;;5.67;5.27;;;36.90;37.60;;;;;;6095656;23;20434;-75
2023/06/18 12:21:29;;;;;;;6.20;5.80;;;37.10;37.10;;;;;;6106127;23;20871;-76
2023/06/18 12:23:57;;;;;;;5.67;5.30;;;37.70;37.70;;;;;;6113627;23;20472;-74
2023/06/18 12:26:24;;;;;;;5.80;5.40;;;38.10;35.80;;;;;;6113297;23;20442;-76
2023/06/18 12:28:53;;;;;;;6.00;5.60;;;37.90;35.40;;;;;;6106097;23;20552;-77
2023/06/18 12:31:20;;;;;;;5.80;5.30;;;37.40;37.20;;;;;;6116029;23;20446;-73
2023/06/18 12:33:47;;;;;;;5.90;5.50;;;37.60;36.60;;;;;;6101755;23;21151;-74
2023/06/18 12:36:16;;;;;;;5.43;5.03;;;37.60;36.60;;;;;;6107917;23;20423;-74
2023/06/18 12:38:43;;;;;;;5.37;4.97;;;37.90;36.50;;;;;;6112992;23;20505;-75
2023/06/18 12:41:10;;;;;;;6.00;5.60;;;38.20;35.80;;;;;;6099250;23;20443;-76
2023/06/18 12:43:42;;;;;;;5.57;5.20;;;38.60;35.70;;;;;;6109637;23;20458;-76
2023/06/18 12:46:09;;;;;;;5.00;4.70;;;38.30;34.80;;;;;;6082809;23;20467;-76